createdAt,value
2023-03-30T00:00:23.446Z,72.61
2023-03-30T00:05:57.182Z,72.68
2023-03-30T00:11:23.580Z,72.76
2023-03-30T00:16:47.583Z,73.45
2023-03-30T00:22:13.257Z,73.67
2023-03-30T00:27:38.318Z,73.65
2023-03-30T00:33:03.242Z,73.68
2023-03-30T00:38:27.611Z,73.63
2023-03-30T00:44:04.735Z,73.57
2023-03-30T00:49:29.541Z,73.84
2023-03-30T00:54:58.467Z,73.69
2023-03-30T01:00:24.103Z,73.92
2023-03-30T01:05:49.288Z,73.90
2023-03-30T01:11:13.238Z,73.94
2023-03-30T01:16:43.844Z,74.32
2023-03-30T01:22:41.853Z,74.27
2023-03-30T01:28:07.217Z,74.53
2023-03-30T01:33:50.570Z,74.67
2023-03-30T01:39:22.009Z,75.05
2023-03-30T01:45:08.024Z,75.14
2023-03-30T01:50:41.311Z,75.11
2023-03-30T01:56:08.846Z,75.33
2023-03-30T02:01:38.466Z,75.42
2023-03-30T02:07:11.656Z,75.92
2023-03-30T02:12:36.752Z,76.53
2023-03-30T02:18:01.049Z,77.04
2023-03-30T02:23:32.253Z,77.54
2023-03-30T02:28:56.697Z,77.52
2023-03-30T02:34:43.974Z,77.58
2023-03-30T02:40:20.433Z,77.52
2023-03-30T02:46:11.207Z,77.35
2023-03-30T02:51:56.451Z,77.23
2023-03-30T02:57:30.615Z,77.30
2023-03-30T03:03:35.705Z,77.86
2023-03-30T03:09:01.070Z,78.76
2023-03-30T03:14:26.886Z,78.91
2023-03-30T03:19:51.484Z,78.76
2023-03-30T03:25:16.946Z,78.65
2023-03-30T03:31:02.836Z,78.44
2023-03-30T03:36:30.990Z,78.60
2023-03-30T03:41:56.038Z,78.32
2023-03-30T03:47:20.565Z,78.25
2023-03-30T03:52:44.768Z,78.15
2023-03-30T03:58:09.051Z,78.16
2023-03-30T04:03:33.565Z,78.12
2023-03-30T04:08:57.462Z,78.48
2023-03-30T04:14:39.428Z,78.63
2023-03-30T04:20:14.112Z,78.54
2023-03-30T04:25:54.843Z,78.80
2023-03-30T04:31:38.894Z,78.67
2023-03-30T04:37:18.600Z,78.70
2023-03-30T04:43:03.057Z,78.59
2023-03-30T04:48:48.625Z,78.55
2023-03-30T04:54:45.833Z,78.39
2023-03-30T05:00:45.360Z,78.32
2023-03-30T05:06:36.044Z,78.49
2023-03-30T05:12:18.953Z,78.43
2023-03-30T05:18:02.428Z,78.73
2023-03-30T05:23:40.258Z,79.02
2023-03-30T05:29:24.014Z,79.20
2023-03-30T05:35:17.769Z,78.97
2023-03-30T05:41:00.321Z,79.29
2023-03-30T05:46:40.163Z,79.43
2023-03-30T05:52:43.031Z,79.08
2023-03-30T05:58:26.541Z,78.91
2023-03-30T06:04:09.649Z,78.87
2023-03-30T06:09:34.917Z,78.80
2023-03-30T06:15:03.384Z,78.62
2023-03-30T06:20:42.703Z,78.51
2023-03-30T06:26:07.869Z,78.09
2023-03-30T06:31:34.746Z,77.75
2023-03-30T06:37:22.413Z,77.40
2023-03-30T06:42:47.376Z,77.17
2023-03-30T06:48:47.137Z,77.17
2023-03-30T06:54:34.355Z,76.40
2023-03-30T07:00:06.873Z,76.25
2023-03-30T07:05:38.284Z,76.08
2023-03-30T07:11:11.869Z,75.56
2023-03-30T07:16:36.722Z,75.10
2023-03-30T07:22:01.394Z,74.69
2023-03-30T07:27:25.901Z,74.79
2023-03-30T07:32:52.172Z,74.41
2023-03-30T07:38:18.062Z,74.24
2023-03-30T07:43:46.803Z,73.69
2023-03-30T07:49:11.566Z,72.69
2023-03-30T07:54:36.681Z,72.22
2023-03-30T08:00:14.313Z,72.08
2023-03-30T08:06:07.053Z,70.29
2023-03-30T08:11:36.585Z,69.76
2023-03-30T08:17:01.659Z,68.60
2023-03-30T08:22:25.992Z,68.04
2023-03-30T08:27:50.291Z,67.90
2023-03-30T08:33:16.244Z,68.01
2023-03-30T08:38:41.504Z,66.60
2023-03-30T08:44:11.034Z,65.84
2023-03-30T08:49:43.036Z,65.36
2023-03-30T08:55:11.294Z,65.04
2023-03-30T09:00:47.158Z,65.06
2023-03-30T09:06:22.146Z,64.01
2023-03-30T09:11:49.922Z,63.18
2023-03-30T09:17:33.022Z,62.28
2023-03-30T09:23:02.690Z,62.37
2023-03-30T09:28:48.703Z,62.47
2023-03-30T09:34:26.172Z,61.89
2023-03-30T09:39:51.183Z,61.51
2023-03-30T09:45:22.392Z,60.02
2023-03-30T09:50:48.025Z,59.88
2023-03-30T09:56:29.062Z,60.44
2023-03-30T10:01:53.059Z,59.29
2023-03-30T10:07:32.196Z,59.67
2023-03-30T10:13:02.754Z,60.10
2023-03-30T10:18:41.656Z,60.14
2023-03-30T10:24:10.280Z,60.34
2023-03-30T10:29:34.890Z,60.73
2023-03-30T10:35:02.293Z,60.20
2023-03-30T10:40:33.809Z,59.77
2023-03-30T10:52:09.961Z,64.08
2023-03-30T10:57:52.128Z,66.65
2023-03-30T11:03:32.922Z,66.99
2023-03-30T11:09:01.885Z,65.96
2023-03-30T11:14:45.247Z,65.79
2023-03-30T11:20:28.344Z,64.76
2023-03-30T11:25:52.367Z,65.25
2023-03-30T11:31:45.647Z,65.68
2023-03-30T11:37:31.864Z,66.30
2023-03-30T11:42:56.780Z,66.63
2023-03-30T11:48:33.458Z,67.36
2023-03-30T11:54:39.059Z,68.18
2023-03-30T12:00:28.682Z,69.09
2023-03-30T12:06:07.299Z,69.86
2023-03-30T12:12:04.175Z,70.64
2023-03-30T12:17:37.193Z,71.20
2023-03-30T12:23:34.423Z,71.68
2023-03-30T12:29:48.151Z,71.94
2023-03-30T12:34:48.649Z,71.63
2023-03-30T12:40:22.989Z,71.88
2023-03-30T12:46:02.956Z,71.84
2023-03-30T12:52:38.819Z,72.02
2023-03-30T12:58:21.374Z,72.12
2023-03-30T13:03:52.894Z,73.05
2023-03-30T13:09:20.167Z,73.55
2023-03-30T13:14:47.376Z,73.41
2023-03-30T13:20:28.131Z,73.55
2023-03-30T13:26:02.800Z,73.25
2023-03-30T13:31:46.146Z,72.59
2023-03-30T13:37:09.940Z,71.75
2023-03-30T13:43:12.822Z,71.05
2023-03-30T13:48:55.332Z,70.36
2023-03-30T13:54:26.855Z,68.95
2023-03-30T14:00:02.642Z,66.73
2023-03-30T14:05:33.441Z,65.18
2023-03-30T14:10:58.498Z,65.01
2023-03-30T14:16:35.379Z,66.04
2023-03-30T14:22:11.280Z,66.38
2023-03-30T14:27:38.798Z,66.50
2023-03-30T14:33:12.180Z,66.21
2023-03-30T14:38:41.602Z,65.92
2023-03-30T14:44:12.693Z,66.13
2023-03-30T14:49:37.893Z,65.94
2023-03-30T14:55:08.590Z,65.90
2023-03-30T15:00:35.877Z,66.53
2023-03-30T15:06:05.989Z,67.18
2023-03-30T15:11:34.821Z,67.50
2023-03-30T15:16:59.474Z,67.90
2023-03-30T15:22:29.485Z,67.67
2023-03-30T15:28:12.799Z,67.93
2023-03-30T15:33:47.286Z,67.88
2023-03-30T15:39:37.124Z,67.68
2023-03-30T15:45:13.326Z,67.48
2023-03-30T15:50:37.871Z,67.41
2023-03-30T15:56:03.691Z,66.28
2023-03-30T16:02:03.190Z,65.72
2023-03-30T16:07:30.000Z,65.54
2023-03-30T16:12:58.897Z,65.79
2023-03-30T16:18:23.158Z,65.68
2023-03-30T16:23:47.458Z,66.05
2023-03-30T16:29:21.836Z,66.73
2023-03-30T16:34:46.726Z,67.33
2023-03-30T16:40:33.307Z,67.92
2023-03-30T16:45:57.674Z,68.68
2023-03-30T16:51:21.941Z,69.30
2023-03-30T16:56:46.842Z,70.03
2023-03-30T17:02:16.812Z,70.75
2023-03-30T17:07:44.697Z,71.45
2023-03-30T17:13:09.714Z,71.76
2023-03-30T17:18:35.029Z,72.79
2023-03-30T17:23:59.176Z,78.10
2023-03-30T17:29:23.269Z,80.65
2023-03-30T17:34:47.788Z,82.26
2023-03-30T17:40:31.771Z,83.42
2023-03-30T17:45:56.375Z,84.48
2023-03-30T17:51:20.886Z,85.59
2023-03-30T17:56:45.791Z,86.81
2023-03-30T18:02:09.812Z,87.36
2023-03-30T18:07:34.480Z,87.30
2023-03-30T18:12:59.484Z,87.89
2023-03-30T18:18:27.855Z,88.47
2023-03-30T18:23:51.824Z,88.49
2023-03-30T18:29:23.082Z,88.67
2023-03-30T18:34:46.975Z,88.85
2023-03-30T18:40:33.230Z,88.73
2023-03-30T18:46:01.693Z,88.76
2023-03-30T18:51:27.497Z,88.59
2023-03-30T18:56:52.223Z,88.43
2023-03-30T19:02:16.665Z,88.72
2023-03-30T19:07:41.384Z,89.25
2023-03-30T19:13:06.578Z,89.38
2023-03-30T19:18:32.245Z,89.57
2023-03-30T19:23:57.419Z,89.71
2023-03-30T19:29:21.966Z,89.85
2023-03-30T19:34:46.757Z,89.91
2023-03-30T19:40:16.678Z,90.00
2023-03-30T19:45:41.487Z,90.03
2023-03-30T19:51:07.821Z,90.01
2023-03-30T19:56:32.654Z,90.41
2023-03-30T20:01:57.016Z,90.36
2023-03-30T20:07:24.723Z,90.47
2023-03-30T20:12:50.060Z,90.77
2023-03-30T20:18:14.617Z,90.94
2023-03-30T20:23:39.272Z,90.97
2023-03-30T20:29:05.393Z,91.01
2023-03-30T20:34:35.351Z,91.10
2023-03-30T20:40:04.154Z,91.04
2023-03-30T20:45:30.314Z,91.08
2023-03-30T20:50:56.218Z,91.22
2023-03-30T20:56:22.590Z,91.07
2023-03-30T21:01:49.578Z,90.78
2023-03-30T21:07:16.964Z,90.70
2023-03-30T21:12:42.162Z,90.59
2023-03-30T21:18:06.810Z,90.37
2023-03-30T21:23:31.616Z,90.19
2023-03-30T21:28:57.533Z,89.62
2023-03-30T21:34:22.793Z,89.48
2023-03-30T21:39:47.361Z,89.17
2023-03-30T21:45:12.497Z,89.05
2023-03-30T21:50:36.502Z,88.76
2023-03-30T21:56:01.362Z,88.59
2023-03-30T22:01:27.766Z,88.50
2023-03-30T22:06:53.135Z,88.15
2023-03-30T22:12:18.177Z,87.78
2023-03-30T22:17:42.178Z,87.73
2023-03-30T22:23:06.543Z,87.55
2023-03-30T22:28:30.946Z,87.48
2023-03-30T22:33:57.367Z,87.37
2023-03-30T22:39:22.299Z,87.28
2023-03-30T22:44:46.728Z,87.38
2023-03-30T22:50:11.537Z,87.19
2023-03-30T22:55:36.010Z,87.48
2023-03-30T23:01:10.796Z,87.62
2023-03-30T23:06:37.109Z,87.44
2023-03-30T23:12:01.919Z,87.52
2023-03-30T23:17:30.499Z,87.56
2023-03-30T23:22:54.888Z,87.36
2023-03-30T23:28:19.424Z,87.28
2023-03-30T23:33:44.258Z,87.18
2023-03-30T23:39:09.790Z,87.17
2023-03-30T23:44:34.706Z,86.80
2023-03-30T23:49:59.005Z,86.69
2023-03-30T23:55:25.056Z,86.63
